Time;durP1;ratioP1;P1;durP2;ratioP2;P2;SDS_P1;SDS_P2;PMS_P1;PMS_P2;Temp;Humidity;BMP_temperature;BMP_pressure;BME280_temperature;BME280_humidity;BME280_pressure;Samples;Min_cycle;Max_cycle;Signal;HPM_P1;HPM_P2
2022/01/26 00:07:13;;;;;;;140.57;72.82;;;;;;;3.06;73.63;103262.84;5070169;28;20518;-67
2022/01/26 00:09:59;;;;;;;134.52;70.32;;;;;;;3.09;74.11;103265.50;5066113;28;20048;-67
2022/01/26 00:12:24;;;;;;;135.93;72.75;;;;;;;3.10;74.19;103259.41;5071632;28;20757;-68
2022/01/26 00:14:50;;;;;;;141.18;71.95;;;;;;;3.08;73.40;103258.50;5080266;28;20547;-67
2022/01/26 00:17:15;;;;;;;136.73;71.40;;;;;;;3.04;73.44;103262.84;5090363;28;20055;-67
2022/01/26 00:20:08;;;;;;;133.98;71.90;;;;;;;3.00;73.95;103252.28;5078992;28;20028;-67
2022/01/26 00:22:53;;;;;;;141.77;72.65;;;;;;;3.07;74.19;103257.63;5078466;28;20451;-67
2022/01/26 00:41:07;;;;;;;146.35;72.18;;;;;;;3.07;73.36;103249.72;5069873;28;20039;-67
2022/01/26 00:43:34;;;;;;;140.27;70.22;;;;;;;3.08;73.57;103253.22;5069250;28;20489;-67
2022/01/26 00:46:01;;;;;;;146.93;73.10;;;;;;;3.02;73.88;103250.56;5068362;28;20024;-67
2022/01/26 00:48:31;;;;;;;143.85;72.47;;;;;;;3.02;74.08;103254.06;5068067;28;20438;-67
2022/01/26 00:50:59;;;;;;;142.88;72.05;;;;;;;3.02;74.08;103255.81;5067522;28;20540;-67
2022/01/26 00:53:31;;;;;;;138.68;70.68;;;;;;;3.04;74.24;103248.84;5068995;28;20028;-67
2022/01/26 00:55:57;;;;;;;146.38;73.45;;;;;;;3.02;73.82;103248.81;5070338;28;20111;-68
2022/01/26 00:58:22;;;;;;;143.82;71.65;;;;;;;3.00;74.42;103245.31;5087071;28;20114;-67
2022/01/26 01:00:48;;;;;;;147.32;71.53;;;;;;;3.01;74.23;103251.44;5074054;28;20056;-67
2022/01/26 01:03:13;;;;;;;144.90;73.13;;;;;;;3.00;73.85;103244.41;5071805;28;20062;-67
2022/01/26 01:05:48;;;;;;;143.05;71.30;;;;;;;2.96;73.66;103219.84;5073113;28;20032;-67
2022/01/26 01:08:19;;;;;;;144.45;70.35;;;;;;;3.03;72.98;103247.97;5072608;28;20036;-67
2022/01/26 01:10:47;;;;;;;140.25;70.88;;;;;;;3.00;73.79;103242.69;5054992;28;20499;-67
2022/01/26 01:13:19;;;;;;;145.05;73.35;;;;;;;2.96;73.34;103246.13;5072898;28;20029;-67
2022/01/26 01:15:51;;;;;;;152.63;73.32;;;;;;;2.94;73.94;103245.25;5073055;28;20028;-67
2022/01/26 01:21:20;;;;;;;143.48;72.13;;;;;;;2.96;73.71;103236.50;5072305;28;20506;-68
2022/01/26 01:31:56;;;;;;;150.20;74.97;;;;;;;2.86;73.85;103228.56;5071894;28;20142;-67
2022/01/26 01:34:05;;;;;;;145.52;73.40;;;;;;;2.88;73.83;103224.16;5069653;28;20044;-67
2022/01/26 01:36:32;;;;;;;147.25;73.18;;;;;;;2.89;73.99;103210.19;5070830;28;20491;-67
2022/01/26 01:38:58;;;;;;;149.00;73.20;;;;;;;2.90;74.71;103222.44;5069969;28;20533;-67
2022/01/26 01:41:23;;;;;;;150.02;73.15;;;;;;;2.95;74.04;103218.97;5071921;28;20032;-68
2022/01/26 01:43:49;;;;;;;145.00;74.22;;;;;;;2.91;73.85;103211.97;5070406;28;20055;-67
2022/01/26 01:46:22;;;;;;;139.00;70.70;;;;;;;2.93;74.27;103209.31;5071826;28;20029;-67
2022/01/26 01:48:48;;;;;;;149.90;74.03;;;;;;;2.89;74.73;103199.66;5072783;28;20040;-67
2022/01/26 01:51:16;;;;;;;150.77;74.53;;;;;;;2.94;75.16;103213.69;5071334;28;20059;-67
2022/01/26 01:53:44;;;;;;;143.32;71.70;;;;;;;3.00;75.17;103211.16;5085019;28;20039;-67
2022/01/26 01:56:13;;;;;;;145.55;72.57;;;;;;;3.00;75.03;103212.88;5077908;28;20491;-67
2022/01/26 01:58:40;;;;;;;146.05;73.65;;;;;;;2.99;74.68;103213.75;5071149;28;20032;-67
2022/01/26 02:01:06;;;;;;;146.17;73.00;;;;;;;3.02;74.46;103213.75;5070613;28;20799;-67
2022/01/26 02:03:32;;;;;;;149.20;73.68;;;;;;;2.93;74.25;103197.06;5071623;28;20173;-67
2022/01/26 02:05:59;;;;;;;147.95;73.47;;;;;;;3.02;74.69;103208.50;5071946;28;20123;-67
2022/01/26 02:08:25;;;;;;;148.02;73.15;;;;;;;3.03;74.19;103203.28;5069806;28;20028;-68
2022/01/26 02:10:52;;;;;;;150.55;74.30;;;;;;;2.94;73.94;103208.44;5071742;28;20110;-67
2022/01/26 02:15:52;;;;;;;150.40;71.20;;;;;;;2.89;74.33;103204.94;5071623;28;20203;-67
2022/01/26 02:18:37;;;;;;;152.25;74.03;;;;;;;2.87;74.37;103196.16;5069710;28;20016;-67
2022/01/26 02:21:24;;;;;;;151.63;72.43;;;;;;;2.83;74.34;103181.25;5080467;28;20062;-67
2022/01/26 02:51:43;;;;;;;146.20;71.82;;;;;;;2.79;73.92;103161.03;5070691;28;20442;-67
2022/01/26 02:57:09;;;;;;;138.20;68.38;;;;;;;2.77;73.69;103149.66;5069793;28;20035;-67
2022/01/26 03:02:30;;;;;;;144.77;71.75;;;;;;;2.78;74.10;103148.78;5070460;28;20051;-67
2022/01/26 03:04:59;;;;;;;145.70;72.35;;;;;;;2.72;74.46;103141.75;5069686;28;20028;-67
2022/01/26 03:07:39;;;;;;;141.27;69.53;;;;;;;2.69;74.32;103137.34;5068930;28;20062;-67
2022/01/26 03:10:19;;;;;;;138.68;69.70;;;;;;;2.71;74.25;103138.25;5069664;28;20069;-67
2022/01/26 03:13:06;;;;;;;139.75;69.00;;;;;;;2.77;74.42;103147.03;5069671;28;20089;-67
2022/01/26 03:15:38;;;;;;;148.68;71.28;;;;;;;2.78;74.39;103138.28;5069946;28;20153;-67
2022/01/26 03:18:40;;;;;;;146.07;71.40;;;;;;;2.72;74.14;103125.97;5070448;28;20108;-67
2022/01/26 03:21:08;;;;;;;141.75;69.05;;;;;;;2.74;74.03;103137.38;5070741;28;20471;-67
2022/01/26 03:29:15;;;;;;;140.50;69.10;;;;;;;2.81;73.62;103140.91;5070205;28;20541;-67
2022/01/26 03:34:25;;;;;;;143.10;70.90;;;;;;;2.81;73.97;103139.16;5069768;28;20040;-67
2022/01/26 03:36:56;;;;;;;138.48;69.07;;;;;;;2.80;74.37;103147.06;5054812;28;20036;-67
2022/01/26 03:39:23;;;;;;;136.85;69.13;;;;;;;2.76;74.47;103143.50;5070394;28;20107;-67
2022/01/26 03:44:18;;;;;;;136.43;69.07;;;;;;;2.74;73.69;103142.63;5069267;28;20448;-67
2022/01/26 03:46:45;;;;;;;141.93;69.68;;;;;;;2.73;74.15;103146.13;5070282;28;20107;-67
2022/01/26 03:49:13;;;;;;;148.10;70.72;;;;;;;2.73;74.26;103144.34;5070277;28;20028;-67
2022/01/26 03:51:40;;;;;;;149.80;71.30;;;;;;;2.76;74.62;103135.63;5069718;28;20479;-67
2022/01/26 03:54:07;;;;;;;150.13;72.20;;;;;;;2.69;73.97;103132.09;5070330;28;20037;-67
2022/01/26 03:56:34;;;;;;;145.50;71.73;;;;;;;2.63;74.87;103115.41;5069760;28;20428;-67
2022/01/26 03:59:02;;;;;;;141.27;68.13;;;;;;;2.63;74.73;103124.16;5069942;28;20020;-67
2022/01/26 04:01:27;;;;;;;144.57;71.07;;;;;;;2.67;74.57;103130.31;5070032;28;20020;-67
2022/01/26 04:04:13;;;;;;;143.83;69.47;;;;;;;2.56;74.43;103135.50;5069748;28;20067;-67
2022/01/26 04:06:39;;;;;;;150.23;71.80;;;;;;;2.57;74.30;103132.00;5069724;28;20039;-67
2022/01/26 04:09:08;;;;;;;145.50;70.32;;;;;;;2.59;74.96;103145.13;5068477;28;20036;-67
2022/01/26 04:14:04;;;;;;;144.23;70.17;;;;;;;2.54;74.91;103141.63;5069510;28;20101;-67
2022/01/26 04:16:30;;;;;;;143.40;69.47;;;;;;;2.49;75.07;103128.44;5070252;28;20112;-67
2022/01/26 04:19:16;;;;;;;140.30;69.27;;;;;;;2.51;75.07;103134.59;5070048;28;20037;-67
2022/01/26 04:24:32;;;;;;;146.30;70.33;;;;;;;2.53;75.42;103135.50;5069975;28;20556;-67
2022/01/26 04:27:14;;;;;;;148.07;70.63;;;;;;;2.53;75.65;103135.50;5069773;28;20021;-67
2022/01/26 04:29:42;;;;;;;147.48;69.60;;;;;;;2.47;75.12;103125.81;5068392;28;20032;-67
2022/01/26 04:32:09;;;;;;;149.50;69.55;;;;;;;2.47;75.68;103136.31;5072515;28;20052;-67
2022/01/26 04:34:35;;;;;;;140.52;66.90;;;;;;;2.45;75.73;103143.31;5072266;28;20025;-67
2022/01/26 04:39:32;;;;;;;146.40;70.07;;;;;;;2.35;76.05;103138.81;5074076;28;20036;-67
2022/01/26 04:42:06;;;;;;;149.63;71.03;;;;;;;2.33;75.60;103151.09;5056478;28;20024;-67
2022/01/26 04:44:38;;;;;;;146.97;69.27;;;;;;;2.37;75.88;103159.84;5073052;28;20380;-67
2022/01/26 04:47:04;;;;;;;141.27;70.75;;;;;;;2.35;76.11;103153.72;5073295;28;20107;-68
2022/01/26 04:49:33;;;;;;;147.30;69.72;;;;;;;2.35;76.30;103170.34;5054952;28;20128;-68
2022/01/26 04:51:59;;;;;;;146.00;71.32;;;;;;;2.36;76.46;103168.63;5088639;28;20031;-68
2022/01/26 04:54:34;;;;;;;140.13;66.83;;;;;;;2.35;75.96;103172.97;5073172;28;20043;-68
2022/01/26 04:56:59;;;;;;;142.10;68.50;;;;;;;2.34;76.37;103171.22;5073211;28;20107;-68
2022/01/26 04:59:25;;;;;;;139.00;69.30;;;;;;;2.34;76.67;103167.72;5071563;28;20081;-69
2022/01/26 05:01:51;;;;;;;143.60;69.13;;;;;;;2.36;76.48;103166.00;5072249;28;20446;-68
2022/01/26 05:04:19;;;;;;;139.45;67.85;;;;;;;2.36;75.82;103180.00;5072482;28;20505;-68
2022/01/26 05:06:44;;;;;;;147.00;68.22;;;;;;;2.35;76.25;103158.97;5071829;28;20033;-68
2022/01/26 05:09:10;;;;;;;145.27;69.50;;;;;;;2.34;76.38;103151.97;5073380;28;20097;-68
2022/01/26 05:11:39;;;;;;;144.55;68.95;;;;;;;2.35;76.27;103151.94;5072577;28;20185;-68
2022/01/26 05:14:07;;;;;;;140.37;66.60;;;;;;;2.32;76.35;103161.56;5071206;28;20063;-68
2022/01/26 05:16:32;;;;;;;146.55;71.07;;;;;;;2.32;76.64;103169.44;5072866;28;20093;-68
2022/01/26 05:18:58;;;;;;;142.90;67.78;;;;;;;2.30;77.27;103158.94;5072731;28;20067;-68
2022/01/26 05:21:28;;;;;;;139.60;68.13;;;;;;;2.36;77.07;103155.47;5069279;28;20028;-68
2022/01/26 05:23:54;;;;;;;143.95;67.55;;;;;;;2.31;76.96;103123.06;5072756;28;20075;-68
2022/01/26 05:26:20;;;;;;;144.18;68.97;;;;;;;2.42;76.89;103124.03;5073677;28;20052;-68
2022/01/26 05:28:48;;;;;;;138.30;68.70;;;;;;;2.31;76.01;103115.19;5072601;28;20115;-68
2022/01/26 05:31:14;;;;;;;140.13;66.53;;;;;;;2.35;76.87;103116.94;5072882;28;20082;-68
2022/01/26 05:33:40;;;;;;;142.35;68.97;;;;;;;2.30;76.56;103122.19;5087501;28;20063;-68
2022/01/26 05:36:06;;;;;;;143.15;68.93;;;;;;;2.30;76.48;103116.94;5071307;28;20040;-68
2022/01/26 05:38:32;;;;;;;147.37;70.10;;;;;;;2.28;77.03;103116.91;5075758;28;20035;-68
2022/01/26 05:41:01;;;;;;;142.98;70.57;;;;;;;2.30;77.12;103106.44;5092836;28;20040;-68
2022/01/26 05:43:30;;;;;;;142.52;69.80;;;;;;;2.38;76.80;103133.63;5089842;28;20024;-68
2022/01/26 05:46:00;;;;;;;147.83;69.70;;;;;;;2.35;77.07;103123.06;5091583;28;20080;-68
2022/01/26 05:48:26;;;;;;;136.23;65.78;;;;;;;2.37;76.96;103125.72;5092329;28;20034;-69
2022/01/26 05:50:53;;;;;;;146.10;69.00;;;;;;;2.37;77.35;103110.84;5091929;28;20028;-68
2022/01/26 05:53:22;;;;;;;142.15;67.57;;;;;;;2.38;76.98;103116.97;5083047;28;20036;-68
2022/01/26 05:55:54;;;;;;;152.45;71.38;;;;;;;2.30;77.47;103116.94;5100446;28;20027;-68
2022/01/26 05:58:19;;;;;;;145.33;69.80;;;;;;;2.35;77.50;103111.69;5072693;28;20063;-68
2022/01/26 06:00:45;;;;;;;141.13;71.13;;;;;;;2.34;77.33;103120.44;5072309;28;20059;-68
2022/01/26 06:03:11;;;;;;;152.32;71.63;;;;;;;2.31;77.56;103117.81;5071681;28;20036;-68
2022/01/26 06:05:36;;;;;;;146.15;68.88;;;;;;;2.27;77.63;103102.03;5070833;28;20435;-68
2022/01/26 06:08:01;;;;;;;156.73;71.63;;;;;;;2.31;77.44;103104.66;5071376;28;20047;-68
2022/01/26 06:10:32;;;;;;;144.85;70.57;;;;;;;2.32;77.79;103094.16;5069503;28;20032;-68
2022/01/26 06:13:00;;;;;;;145.80;69.93;;;;;;;2.30;77.81;103103.81;5071766;28;20388;-68
2022/01/26 06:15:26;;;;;;;148.43;69.00;;;;;;;2.25;77.95;103108.13;5069881;28;20028;-68
2022/01/26 06:17:52;;;;;;;144.47;71.63;;;;;;;2.25;78.48;103108.13;5070760;28;20382;-68
2022/01/26 06:20:18;;;;;;;144.30;70.40;;;;;;;2.27;78.12;103116.91;5070616;28;20035;-68
2022/01/26 06:22:44;;;;;;;152.07;70.30;;;;;;;2.33;78.22;103118.69;5070013;28;20454;-68
2022/01/26 06:25:10;;;;;;;146.03;71.60;;;;;;;2.26;78.57;103123.91;5071327;28;20037;-68
2022/01/26 06:27:37;;;;;;;151.57;71.17;;;;;;;2.30;79.08;103123.94;5070035;28;20045;-68
2022/01/26 06:30:07;;;;;;;144.77;70.73;;;;;;;2.30;78.85;103116.94;5070115;28;20024;-68
2022/01/26 06:32:37;;;;;;;150.87;70.37;;;;;;;2.31;78.72;103108.16;5069331;28;20115;-68
2022/01/26 06:35:04;;;;;;;140.48;67.93;;;;;;;2.28;78.86;103111.66;5070144;28;20046;-68
2022/01/26 06:37:31;;;;;;;145.57;69.47;;;;;;;2.35;79.05;103107.31;5071340;28;20025;-68
2022/01/26 06:39:59;;;;;;;149.10;72.33;;;;;;;2.33;79.15;103093.31;5069815;28;20041;-68
2022/01/26 06:42:32;;;;;;;147.48;72.00;;;;;;;2.32;79.14;103107.28;5071602;28;20136;-68
2022/01/26 06:49:51;;;;;;;150.63;71.40;;;;;;;2.25;79.11;103113.38;5071587;28;20068;-68
2022/01/26 06:52:16;;;;;;;143.68;69.15;;;;;;;2.31;79.85;103123.06;5073060;28;20520;-68
2022/01/26 06:54:42;;;;;;;153.45;72.30;;;;;;;2.28;79.66;103122.16;5080643;28;20543;-68
2022/01/26 06:57:08;;;;;;;142.43;73.03;;;;;;;2.27;80.15;103125.66;5069560;28;20037;-68
2022/01/26 06:59:34;;;;;;;149.03;70.87;;;;;;;2.32;79.80;103128.28;5069829;28;20036;-68
2022/01/26 07:01:59;;;;;;;163.20;74.63;;;;;;;2.30;80.42;103116.06;5070853;28;20067;-68
2022/01/26 07:04:25;;;;;;;146.70;72.45;;;;;;;2.32;79.92;103107.28;5069304;28;20482;-68
2022/01/26 07:06:52;;;;;;;153.70;68.53;;;;;;;2.31;80.19;103115.19;5070533;28;20521;-68
2022/01/26 07:09:19;;;;;;;158.07;75.87;;;;;;;2.32;80.02;103109.91;5071031;28;20044;-68
2022/01/26 07:11:45;;;;;;;152.77;73.67;;;;;;;2.35;80.04;103109.06;5069982;28;20526;-68
2022/01/26 07:14:17;;;;;;;152.87;72.10;;;;;;;2.34;80.30;103107.31;5068954;28;20425;-68
2022/01/26 07:20:56;;;;;;;158.63;74.17;;;;;;;2.25;80.45;103116.88;5090140;28;20051;-68
2022/01/26 07:22:12;;;;;;;161.00;75.57;;;;;;;2.26;80.82;103123.91;5064747;28;20036;-68
2022/01/26 07:24:38;;;;;;;160.95;76.30;;;;;;;2.28;81.12;103124.78;5068850;28;20108;-69
2022/01/26 07:27:04;;;;;;;166.38;78.50;;;;;;;2.31;81.25;103144.06;5069714;28;20089;-68
2022/01/26 07:29:31;;;;;;;165.40;75.83;;;;;;;2.33;81.07;103166.84;5069776;28;20078;-68
2022/01/26 07:31:59;;;;;;;163.57;76.28;;;;;;;2.26;81.40;103136.13;5070671;28;20414;-68
2022/01/26 07:34:24;;;;;;;165.57;74.75;;;;;;;2.33;81.36;103126.56;5070686;28;20159;-68
2022/01/26 07:36:59;;;;;;;160.70;72.43;;;;;;;2.48;80.32;103142.44;5070968;28;20135;-68
2022/01/26 07:42:19;;;;;;;168.70;76.78;;;;;;;2.32;82.22;103136.19;5061348;28;20040;-68
2022/01/26 07:44:44;;;;;;;170.07;76.65;;;;;;;2.32;82.50;103137.94;5069996;28;20531;-68
2022/01/26 07:47:11;;;;;;;160.97;74.67;;;;;;;2.33;82.60;103139.72;5070498;28;20166;-68
2022/01/26 07:49:36;;;;;;;167.93;75.17;;;;;;;2.31;82.85;103133.56;5069400;28;20104;-68
2022/01/26 07:52:02;;;;;;;166.23;76.00;;;;;;;2.31;82.48;103129.19;5069008;28;20497;-68
2022/01/26 07:54:29;;;;;;;166.83;75.00;;;;;;;2.25;83.15;103135.25;5085154;28;20033;-68
2022/01/26 07:56:54;;;;;;;168.97;76.77;;;;;;;2.21;83.30;103122.09;5070210;28;20059;-69
2022/01/26 07:59:19;;;;;;;171.90;72.70;;;;;;;2.24;83.36;103133.50;5068823;28;20125;-68
2022/01/26 08:01:47;;;;;;;173.70;76.93;;;;;;;2.29;83.54;103141.41;5069930;28;20043;-68
2022/01/26 08:04:13;;;;;;;173.13;75.53;;;;;;;2.27;83.64;103157.16;5069231;28;20032;-68
2022/01/26 08:06:40;;;;;;;167.73;76.50;;;;;;;2.27;84.13;103169.41;5069805;28;20384;-68
2022/01/26 08:09:06;;;;;;;171.77;76.90;;;;;;;2.26;84.31;103163.28;5070122;28;20037;-68
2022/01/26 08:11:34;;;;;;;171.90;74.67;;;;;;;2.31;84.65;103168.56;5069483;28;20045;-68
2022/01/26 08:14:01;;;;;;;165.52;74.53;;;;;;;2.31;84.44;103160.69;5068433;28;20476;-68
2022/01/26 08:16:27;;;;;;;163.73;74.95;;;;;;;2.27;84.53;103158.91;5069182;28;20028;-69
2022/01/26 08:18:52;;;;;;;162.33;73.07;;;;;;;2.32;84.83;103165.06;5070226;28;20395;-68
2022/01/26 08:21:19;;;;;;;163.63;71.37;;;;;;;2.34;84.39;103168.59;5068914;28;20032;-68
2022/01/26 08:23:45;;;;;;;164.20;73.37;;;;;;;2.34;84.80;103170.34;5070030;28;20079;-68
2022/01/26 08:26:11;;;;;;;168.32;72.97;;;;;;;2.36;84.62;103172.13;5070084;28;20527;-68
2022/01/26 08:28:42;;;;;;;158.47;70.67;;;;;;;2.35;85.20;103167.72;5066702;28;20041;-69
2022/01/26 08:31:07;;;;;;;160.23;71.50;;;;;;;2.40;85.31;103158.13;5066928;28;20401;-68
2022/01/26 08:33:33;;;;;;;159.57;69.35;;;;;;;2.39;85.38;103156.38;5067982;28;20028;-68
2022/01/26 08:36:03;;;;;;;160.30;71.20;;;;;;;2.34;85.54;103158.09;5069334;28;20025;-68
2022/01/26 08:38:31;;;;;;;160.80;71.53;;;;;;;2.33;85.75;103153.72;5068926;28;20033;-68
2022/01/26 08:40:59;;;;;;;164.50;71.80;;;;;;;2.32;86.19;103156.31;5068510;28;20028;-68
2022/01/26 08:43:25;;;;;;;162.40;72.78;;;;;;;2.34;85.92;103165.97;5067230;28;20030;-69
2022/01/26 08:45:50;;;;;;;164.40;71.80;;;;;;;2.34;86.07;103165.09;5084621;28;20029;-68
2022/01/26 08:48:16;;;;;;;170.93;71.75;;;;;;;2.33;86.01;103165.97;5067594;28;20135;-69
2022/01/26 08:50:41;;;;;;;156.43;69.15;;;;;;;2.39;86.47;103176.50;5068521;28;20024;-68
2022/01/26 08:53:07;;;;;;;154.95;67.88;;;;;;;2.42;86.47;103166.03;5068688;28;20029;-68
2022/01/26 08:55:35;;;;;;;161.45;72.25;;;;;;;2.42;86.55;103174.78;5067787;28;20017;-68
2022/01/26 08:58:00;;;;;;;153.00;68.87;;;;;;;2.45;85.63;103174.81;5067449;28;20410;-68
2022/01/26 09:00:25;;;;;;;155.10;68.57;;;;;;;2.34;86.03;103162.47;5068155;28;20024;-69
2022/01/26 09:02:53;;;;;;;155.63;68.17;;;;;;;2.44;86.18;103175.69;5074004;28;20035;-68
2022/01/26 09:05:19;;;;;;;150.68;69.05;;;;;;;2.46;85.77;103178.31;5066753;28;20044;-68
2022/01/26 09:07:46;;;;;;;150.00;68.77;;;;;;;2.45;86.18;103174.81;5068952;28;20411;-68
2022/01/26 09:10:12;;;;;;;141.67;63.00;;;;;;;2.47;85.96;103167.84;5066870;28;20428;-69
2022/01/26 09:12:41;;;;;;;147.13;66.73;;;;;;;2.47;85.89;103167.84;5067220;28;20078;-68
2022/01/26 09:15:07;;;;;;;143.60;65.73;;;;;;;2.49;85.70;103166.06;5068381;28;20036;-69
2022/01/26 09:17:35;;;;;;;146.35;66.80;;;;;;;2.49;86.11;103167.84;5070260;28;20028;-68
2022/01/26 09:20:07;;;;;;;144.10;65.65;;;;;;;2.49;85.77;103179.22;5071751;28;20025;-68
2022/01/26 09:22:33;;;;;;;151.15;65.40;;;;;;;2.50;85.62;103174.88;5071585;28;20029;-69
2022/01/26 09:24:59;;;;;;;140.90;64.43;;;;;;;2.48;86.01;103179.22;5072278;28;20039;-68
2022/01/26 09:27:25;;;;;;;147.35;67.82;;;;;;;2.44;86.19;103172.16;5072361;28;20025;-68
2022/01/26 09:29:53;;;;;;;138.40;64.55;;;;;;;2.49;85.92;103183.59;5071837;28;20032;-68
2022/01/26 09:32:19;;;;;;;143.70;64.23;;;;;;;2.44;85.96;103177.41;5069504;28;20032;-68
2022/01/26 09:34:44;;;;;;;145.03;66.53;;;;;;;2.51;86.07;103189.75;5071289;28;20544;-68
2022/01/26 09:37:12;;;;;;;143.30;64.77;;;;;;;2.44;85.72;103167.81;5070463;28;20052;-69
2022/01/26 09:39:40;;;;;;;141.20;64.47;;;;;;;2.53;85.99;103188.03;5071781;28;20028;-68
2022/01/26 09:42:12;;;;;;;145.50;63.93;;;;;;;2.45;86.07;103169.56;5071414;28;20046;-68
2022/01/26 09:44:38;;;;;;;140.00;63.23;;;;;;;2.59;86.20;103168.78;5072600;28;20016;-69
2022/01/26 09:47:06;;;;;;;141.15;62.67;;;;;;;2.58;86.26;103165.28;5071596;28;20032;-68
2022/01/26 09:49:33;;;;;;;134.97;63.73;;;;;;;2.58;85.81;103165.28;5075689;28;20040;-68
2022/01/26 09:52:14;;;;;;;131.68;62.78;;;;;;;2.60;86.19;103163.53;5070577;28;20036;-68
2022/01/26 09:54:41;;;;;;;139.45;64.82;;;;;;;2.63;86.13;103155.69;5071389;28;20025;-68
2022/01/26 09:57:06;;;;;;;131.17;63.67;;;;;;;2.65;86.03;103148.72;5069623;28;20036;-68
2022/01/26 09:59:33;;;;;;;131.17;62.47;;;;;;;2.61;85.61;103136.41;5069850;28;20043;-68
2022/01/26 10:02:02;;;;;;;128.63;59.97;;;;;;;2.70;85.25;103149.59;5071616;28;20036;-68
2022/01/26 10:04:34;;;;;;;121.70;58.67;;;;;;;2.76;85.53;103155.75;5071210;28;20029;-68
2022/01/26 10:07:13;;;;;;;125.80;58.60;;;;;;;2.74;85.09;103150.53;5071836;28;20020;-68
2022/01/26 10:09:57;;;;;;;116.57;57.03;;;;;;;2.76;85.05;103153.13;5070315;28;20426;-68
2022/01/26 10:18:16;;;;;;;110.57;55.83;;;;;;;2.78;84.55;103148.78;5070947;28;20059;-68
2022/01/26 10:20:47;;;;;;;114.78;57.53;;;;;;;2.82;84.86;103161.06;5070034;28;20104;-68
2022/01/26 10:23:20;;;;;;;119.32;59.03;;;;;;;2.79;84.19;103145.28;5070019;28;20485;-68
2022/01/26 10:26:01;;;;;;;113.70;56.43;;;;;;;2.83;83.88;103153.19;5071617;28;20516;-68
2022/01/26 10:28:27;;;;;;;112.50;56.67;;;;;;;2.81;85.20;103143.53;5068277;28;20102;-68
2022/01/26 10:30:52;;;;;;;110.60;58.50;;;;;;;2.82;84.75;103134.78;5070127;28;20456;-68
2022/01/26 10:33:18;;;;;;;114.20;56.45;;;;;;;2.81;84.79;103135.66;5070914;28;20028;-67
2022/01/26 10:35:45;;;;;;;110.27;57.87;;;;;;;2.79;85.28;103138.25;5068642;28;20363;-68
2022/01/26 10:38:10;;;;;;;113.00;56.22;;;;;;;2.84;84.29;103139.19;5085656;28;20020;-68
2022/01/26 10:40:39;;;;;;;105.03;52.97;;;;;;;2.82;85.41;103155.81;5070911;28;20405;-68
2022/01/26 10:43:11;;;;;;;110.53;57.47;;;;;;;2.79;84.46;103171.56;5068977;28;20983;-68
2022/01/26 10:46:02;;;;;;;118.45;55.60;;;;;;;2.86;84.49;103187.38;5069737;28;20107;-68
2022/01/26 10:52:03;;;;;;;114.57;57.50;;;;;;;2.83;85.54;103207.50;5070604;28;20028;-68
2022/01/26 10:54:09;;;;;;;112.15;58.03;;;;;;;2.86;85.36;103202.28;5069254;28;20488;-68
2022/01/26 10:56:35;;;;;;;114.88;57.13;;;;;;;2.90;85.25;103185.66;5070469;28;20451;-68
2022/01/26 10:59:00;;;;;;;117.60;58.38;;;;;;;2.92;85.27;103183.91;5069658;28;20032;-68
2022/01/26 11:01:26;;;;;;;121.35;57.65;;;;;;;2.89;85.89;103178.66;5070290;28;20032;-68
2022/01/26 11:03:52;;;;;;;114.90;58.50;;;;;;;2.89;85.45;103176.03;5070064;28;20440;-68
2022/01/26 11:06:26;;;;;;;116.83;58.87;;;;;;;2.76;85.55;103145.25;5070729;28;20016;-69
2022/01/26 11:08:53;;;;;;;112.28;57.13;;;;;;;2.92;85.76;103173.41;5071286;28;20032;-69
2022/01/26 11:11:23;;;;;;;117.85;58.20;;;;;;;2.88;85.30;103169.88;5069864;28;20432;-68
2022/01/26 11:13:49;;;;;;;114.57;58.08;;;;;;;2.92;85.73;103181.28;5070572;28;20308;-68
2022/01/26 11:16:20;;;;;;;110.18;56.22;;;;;;;2.94;85.26;103175.19;5070742;28;20050;-69
2022/01/26 11:18:53;;;;;;;118.90;57.00;;;;;;;2.95;85.74;103168.16;5070191;28;20043;-69
2022/01/26 11:21:30;;;;;;;118.80;58.72;;;;;;;2.91;85.13;103167.28;5069499;28;20460;-69
2022/01/26 11:24:18;;;;;;;117.97;59.17;;;;;;;2.95;85.36;103166.41;5069190;28;20040;-69
2022/01/26 11:26:45;;;;;;;109.85;58.38;;;;;;;2.95;85.89;103161.16;5071295;28;20125;-69
2022/01/26 11:29:16;;;;;;;120.63;57.70;;;;;;;2.96;85.54;103159.41;5068297;28;20582;-69
2022/01/26 11:31:42;;;;;;;109.95;57.30;;;;;;;3.01;84.96;103160.31;5070757;28;20472;-69
2022/01/26 11:34:09;;;;;;;112.78;57.33;;;;;;;2.96;85.71;103160.28;5070461;28;20441;-69
2022/01/26 11:36:35;;;;;;;114.55;57.85;;;;;;;3.00;85.63;103161.19;5070512;28;20111;-68
2022/01/26 11:47:03;;;;;;;112.85;57.80;;;;;;;2.98;85.24;103131.38;5076350;28;20517;-68
2022/01/26 11:49:40;;;;;;;113.45;56.17;;;;;;;3.03;85.10;103134.94;5068567;28;20124;-69
2022/01/26 11:52:06;;;;;;;110.80;56.55;;;;;;;2.98;84.92;103125.25;5069037;28;20451;-69
2022/01/26 11:54:49;;;;;;;117.40;56.95;;;;;;;3.02;85.45;103127.03;5070246;28;20024;-69
2022/01/26 11:57:17;;;;;;;112.13;57.55;;;;;;;3.00;85.69;103118.22;5074992;28;20730;-68
2022/01/26 11:59:49;;;;;;;105.68;55.95;;;;;;;3.07;84.87;103123.53;5084006;28;20393;-68
2022/01/26 12:02:38;;;;;;;111.22;57.28;;;;;;;3.05;85.65;103124.41;5084219;28;20032;-68
2022/01/26 12:05:07;;;;;;;111.30;56.75;;;;;;;3.05;85.37;103125.28;5075612;28;20030;-68
2022/01/26 12:07:33;;;;;;;116.80;58.70;;;;;;;3.07;85.38;103109.53;5068771;28;20022;-69
2022/01/26 12:10:03;;;;;;;109.90;57.30;;;;;;;3.11;84.98;103129.69;5069099;28;20461;-68
2022/01/26 12:12:28;;;;;;;103.05;55.65;;;;;;;3.13;85.07;103118.31;5068944;28;20972;-68
2022/01/26 12:15:06;;;;;;;109.68;57.95;;;;;;;3.12;85.23;103111.31;5068629;28;20036;-68
2022/01/26 12:17:39;;;;;;;105.82;55.47;;;;;;;3.12;85.21;103106.06;5064434;28;20086;-68
2022/01/26 12:37:19;;;;;;;107.32;54.83;;;;;;;3.34;83.10;103122.78;5068190;28;20031;-68
2022/01/26 12:43:04;;;;;;;107.78;56.63;;;;;;;3.24;84.33;103117.50;5069780;28;20043;-69
2022/01/26 12:45:25;;;;;;;105.95;54.58;;;;;;;3.26;83.83;103115.72;5067731;28;20395;-68
2022/01/26 12:47:52;;;;;;;98.47;54.17;;;;;;;3.35;83.33;103118.38;5066883;28;20039;-68
2022/01/26 12:50:19;;;;;;;101.55;53.38;;;;;;;3.26;83.69;103111.34;5068734;28;20024;-69
2022/01/26 12:52:49;;;;;;;106.32;53.67;;;;;;;3.29;83.38;103121.00;5072865;28;20094;-68
2022/01/26 12:55:20;;;;;;;98.13;49.92;;;;;;;3.22;84.00;103109.59;5073088;28;20082;-68
2022/01/26 12:57:46;;;;;;;103.55;53.97;;;;;;;3.25;84.35;103114.84;5072897;28;20530;-68
2022/01/26 13:00:12;;;;;;;105.88;54.22;;;;;;;3.23;84.04;103111.34;5072314;28;20107;-69
2022/01/26 13:02:38;;;;;;;98.05;52.78;;;;;;;3.31;84.14;103116.63;5072439;28;20025;-68
2022/01/26 13:05:04;;;;;;;102.28;53.88;;;;;;;3.35;83.64;103121.03;5071254;28;20495;-68
2022/01/26 13:07:32;;;;;;;97.65;53.47;;;;;;;3.34;83.58;103116.66;5071799;28;20034;-68
2022/01/26 13:09:58;;;;;;;98.72;52.85;;;;;;;3.36;82.96;103114.91;5071357;28;20391;-69
2022/01/26 13:12:31;;;;;;;99.05;52.67;;;;;;;3.34;83.37;103101.75;5054685;28;20037;-68
2022/01/26 13:15:07;;;;;;;101.32;55.58;;;;;;;3.32;83.38;103092.94;5072349;28;20386;-68
2022/01/26 13:17:41;;;;;;;98.20;53.63;;;;;;;3.32;83.39;103092.94;5071747;28;20103;-68
2022/01/26 13:20:37;;;;;;;98.95;46.78;;;;;;;3.39;82.86;103075.47;5071344;28;20036;-68
2022/01/26 13:23:24;;;;;;;94.88;53.25;;;;;;;3.35;83.42;103086.84;5072788;28;20518;-68
2022/01/26 13:26:35;;;;;;;100.10;54.33;;;;;;;3.34;82.95;103077.19;5072329;28;20104;-68
2022/01/26 13:29:03;;;;;;;111.30;58.05;;;;;;;3.39;83.68;103075.47;5088581;28;20032;-68
2022/01/26 13:42:23;;;;;;;175.43;104.03;;;;;;;3.51;83.00;103072.00;5071425;28;20036;-69
2022/01/26 13:50:03;;;;;;;157.50;93.47;;;;;;;3.49;83.78;103069.34;5071851;28;20460;-69